• Join FlightAware (Why Join?)
  • Login
  • US Flag 
01:32PM EDT


 

Airport Tracker/Info


-or-


 

Live Flight TrackerFlight Track Log ✈ DAL1735 ✈ 24-Jul-2013 ✈ KLAX - PHLI / LIH

Flight Track Log - Related Links

Times and Time Zones

All times are in EDT time to prevent confusion due to time zone crossing. See the DAL1735 flight status page for this flight to view local times or setup timezone preferences in your user account.

Time Position Orientation Groundspeed Altitude Reporting Facility
EDT Latitude Longitude Course Direction KTS MPH feet Rate Location/Type
07:10PM 33.9350 -118.4200 263° West 166 191 1,200  Level FlightAware
07:11PM 33.9320 -118.4490 263° West 202 232 2,000 1,740 Climbing FlightAware
07:11PM 33.9310 -118.4620 265° West 212 244 2,400 1,680 Climbing FlightAware
07:11PM 33.9270 -118.5070 264° West 250 288 3,300 1,980 Climbing FlightAware
07:12PM 33.9230 -118.5400 262° West 260 299 4,400 2,220 Climbing FlightAware
07:12PM 33.9210 -118.5630 264° West 259 298 5,200 2,100 Climbing FlightAware
07:13PM 33.9180 -118.5920 263° West 269 310 5,800 2,640 Climbing FlightAware
07:13PM 33.9120 -118.6460 262° West 274 315 7,400 3,060 Climbing FlightAware
07:14PM 33.9070 -118.7060 264° West 283 326 9,000 2,820 Climbing FlightAware
07:14PM 33.9030 -118.7440 263° West 290 334 9,900 1,560 Climbing FlightAware
07:15PM 33.9060 -118.8420 272° West 345 397 11,100 1,380 Climbing FlightAware
07:16PM 33.9380 -118.9510 290° West 381 438 12,500 1,740 Climbing FlightAware
07:17PM 33.9630 -119.0350 290° West 391 450 14,000 1,980 Climbing FlightAware
07:17PM 33.9890 -119.1230 290° West 401 461 15,300 1,800 Climbing FlightAware
07:18PM 34.0170 -119.2170 290° West 414 476 16,600 1,560 Climbing FlightAware
07:19PM 34.0410 -119.3010 289° West 426 490 17,500 1,560 Climbing FlightAware
07:19PM 34.0730 -119.4060 290° West 434 499 18,800 1,440 Climbing FlightAware
07:20PM 34.1010 -119.5000 290° West 439 505 20,000 720 Climbing FlightAware
07:21PM 34.1280 -119.5840 291° West 440 506 20,000  Level FlightAware
07:22PM 34.1500 -119.6550 291° West 440 506 20,000  Level FlightAware
07:22PM 34.1660 -119.7030 292° West 440 506 20,000 3,480 Level FlightAware
07:23PM 34.2160 -119.8930 288° West 451 519 24,200 2,940 Climbing FlightAware
07:23PM 34.2190 -119.9740 273° West 451 519 24,200 1,320 Level FlightAware
07:24PM 34.2230 -120.1170 272° West 462 532 26,200 1,320 Climbing FlightAware
07:25PM 34.2260 -120.2110 272° West 463 533 26,300 1,200 Climbing FlightAware
07:26PM 34.2280 -120.3330 271° West 464 534 27,900 1,320 Climbing FlightAware
07:27PM 34.2030 -120.4580 256° West 460 529 28,500 360 Climbing FlightAware
07:27PM 34.1860 -120.5340 255° West 460 529 28,500  Level FlightAware
07:28PM 34.1690 -120.6100 255° West 460 529 28,500  Level FlightAware
07:29PM 34.1460 -120.7130 255° West 460 529 28,500  Level FlightAware
07:29PM 34.1300 -120.7890 256° West 460 529 28,500  Level FlightAware
07:30PM 34.1130 -120.8650 255° West 460 529 28,500 2,580 Level FlightAware
07:31PM 33.9853 -121.1039 255° West 425 489 34,000 2,100 Climbing Los Angeles Center
07:32PM 33.9406 -121.2353 248° West 423 487 34,000  Level Los Angeles Center
07:33PM 33.8961 -121.3678 248° West 427 491 34,000  Level Los Angeles Center
07:34PM 33.8628 -121.5072 254° West 435 501 34,000  Level Los Angeles Center
07:35PM 33.8164 -121.6392 247° West 429 494 34,000  Level Los Angeles Center
07:37PM 33.7600 -121.7964 247° West 425 489 34,000  Level Los Angeles Center
07:38PM 33.7153 -121.9269 248° West 422 486 34,000  Level Los Angeles Center
07:39PM 33.6689 -122.0586 247° West 426 490 34,000  Level Los Angeles Center
07:40PM 33.6228 -122.1897 247° West 426 490 34,000  Level Los Angeles Center
07:41PM 33.5764 -122.3225 247° West 430 495 34,000  Level Los Angeles Center
07:42PM 33.5292 -122.4553 247° West 432 497 34,000  Level Los Angeles Center
07:43PM 33.4742 -122.6142 247° West 430 495 34,000  Level Los Angeles Center
07:45PM 33.4235 -122.8579 256° West  Level FlightAware Approximate
07:52PM 33.2183 -123.8208 256° West  Level FlightAware Approximate
07:53PM 33.1884 -123.9580 255° West  Level FlightAware Approximate
07:54PM 33.1583 -124.0951 255° West  Level FlightAware Approximate
07:55PM 33.1281 -124.2321 255° West  Level FlightAware Approximate
07:56PM 33.0977 -124.3690 255° West  Level FlightAware Approximate
07:57PM 33.0667 -124.5031 270° West  Level FlightAware Approximate
07:58PM 33.0390 -124.6403 255° West  Level FlightAware Approximate
07:58PM 33.0667 -124.5167 255° West 459 528 34,000  Level Oakland Oceanic (ODAPS)
07:59PM 33.0083 -124.7769 255° West  Level FlightAware Approximate
08:00PM 32.9775 -124.9135 255° West  Level FlightAware Approximate
08:01PM 32.9465 -125.0500 255° West  Level FlightAware Approximate
08:02PM 32.9152 -125.1867 255° West  Level FlightAware Approximate
08:03PM 32.8838 -125.3233 255° West  Level FlightAware Approximate
08:04PM 32.8523 -125.4599 255° West  Level FlightAware Approximate
08:05PM 32.7653 -125.8329 254° West 459 528 34,000  Level FlightAware Transoceanic
08:06PM 32.7309 -125.9786 254° West 459 528 34,000  Level FlightAware Transoceanic
08:07PM 32.6964 -126.1242 254° West 459 528 34,000  Level FlightAware Transoceanic
08:08PM 32.6618 -126.2696 254° West 459 528 34,000  Level FlightAware Transoceanic
08:09PM 32.6269 -126.4150 254° West 459 528 34,000  Level FlightAware Transoceanic
08:10PM 32.5919 -126.5602 254° West 459 528 34,000  Level FlightAware Transoceanic
08:11PM 32.5567 -126.7054 254° West 459 528 34,000  Level FlightAware Transoceanic
08:12PM 32.5214 -126.8504 254° West 459 528 34,000  Level FlightAware Transoceanic
08:13PM 32.4859 -126.9953 254° West 459 528 34,000  Level FlightAware Transoceanic
08:14PM 32.4502 -127.1401 254° West 459 528 34,000  Level FlightAware Transoceanic
08:15PM 32.4144 -127.2847 254° West 459 528 34,000  Level FlightAware Transoceanic
08:16PM 32.3784 -127.4293 254° West 459 528 34,000  Level FlightAware Transoceanic
08:17PM 32.3422 -127.5737 253° West 459 528 34,000  Level FlightAware Transoceanic
08:18PM 32.3059 -127.7180 253° West 459 528 34,000  Level FlightAware Transoceanic
08:19PM 32.2694 -127.8622 253° West 459 528 34,000  Level FlightAware Transoceanic
08:20PM 32.2327 -128.0063 253° West 459 528 34,000  Level FlightAware Transoceanic
08:21PM 32.1959 -128.1503 253° West 459 528 34,000  Level FlightAware Transoceanic
08:22PM 32.1589 -128.2941 253° West 459 528 34,000  Level FlightAware Transoceanic
08:23PM 32.1218 -128.4379 253° West 459 528 34,000  Level FlightAware Transoceanic
08:24PM 32.0844 -128.5815 253° West 459 528 34,000  Level FlightAware Transoceanic
08:25PM 32.0470 -128.7250 253° West 459 528 34,000  Level FlightAware Transoceanic
08:26PM 32.0093 -128.8684 253° West 459 528 34,000  Level FlightAware Transoceanic
08:27PM 31.9715 -129.0117 253° West 459 528 34,000  Level FlightAware Transoceanic
08:28PM 31.9336 -129.1548 253° West 459 528 34,000  Level FlightAware Transoceanic
08:29PM 31.8955 -129.2979 253° West 459 528 34,000  Level FlightAware Transoceanic
08:30PM 31.8572 -129.4408 252° West 459 528 34,000  Level FlightAware Transoceanic
08:31PM 31.8188 -129.5836 252° West 459 528 34,000  Level FlightAware Transoceanic
08:32PM 31.7802 -129.7263 252° West 459 528 34,000  Level FlightAware Transoceanic
08:33PM 31.7414 -129.8688 252° West 459 528 34,000  Level FlightAware Transoceanic
08:34PM 31.7025 -130.0112 252° West 459 528 34,000  Level FlightAware Transoceanic
08:35PM 31.6634 -130.1536 252° West 459 528 34,000  Level FlightAware Transoceanic
08:36PM 31.6242 -130.2958 252° West 459 528 34,000  Level FlightAware Transoceanic
08:37PM 31.5848 -130.4378 252° West 459 528 34,000  Level FlightAware Transoceanic
08:38PM 31.5452 -130.5798 252° West 459 528 34,000  Level FlightAware Transoceanic
08:39PM 31.5056 -130.7216 252° West 459 528 34,000  Level FlightAware Transoceanic
08:40PM 31.4657 -130.8634 252° West 459 528 34,000  Level FlightAware Transoceanic
08:41PM 31.4257 -131.0049 252° West 459 528 34,000  Level FlightAware Transoceanic
08:42PM 31.3855 -131.1464 252° West 459 528 34,000  Level FlightAware Transoceanic
08:43PM 31.3452 -131.2878 251° West 459 528 34,000  Level FlightAware Transoceanic
08:44PM 31.3047 -131.4290 251° West 459 528 34,000  Level FlightAware Transoceanic
08:45PM 31.2641 -131.5701 251° West 459 528 34,000  Level FlightAware Transoceanic
08:46PM 31.2233 -131.7111 251° West 459 528 34,000  Level FlightAware Transoceanic
08:47PM 31.1823 -131.8520 251° West 459 528 34,000  Level FlightAware Transoceanic
08:48PM 31.1413 -131.9927 251° West 459 528 34,000  Level FlightAware Transoceanic
08:49PM 31.1000 -132.1333 251° West 459 528 34,000  Level FlightAware Transoceanic
08:50PM 31.0593 -132.2717 251° West 459 528 34,000  Level FlightAware Transoceanic
08:51PM 31.0184 -132.4099 251° West 459 528 34,000  Level FlightAware Transoceanic
08:51PM 31.1000 -132.1333 251° West 451 519 34,000  Level Oakland Oceanic (ODAPS)
08:52PM 30.9774 -132.5481 251° West 459 528 34,000  Level FlightAware Transoceanic
08:53PM 30.9363 -132.6861 251° West 459 528 34,000  Level FlightAware Transoceanic
08:54PM 30.8950 -132.8240 251° West 459 528 34,000  Level FlightAware Transoceanic
08:55PM 30.8536 -132.9618 251° West 459 528 34,000  Level FlightAware Transoceanic
08:56PM 30.8120 -133.0994 251° West 459 528 34,000  Level FlightAware Transoceanic
08:57PM 30.7703 -133.2370 251° West 459 528 34,000  Level FlightAware Transoceanic
08:58PM 30.7284 -133.3744 250° West 451 519 34,000  Level FlightAware Transoceanic
08:59PM 30.6864 -133.5117 250° West 451 519 34,000  Level FlightAware Transoceanic
09:00PM 30.6442 -133.6489 250° West 451 519 34,000  Level FlightAware Transoceanic
09:01PM 30.6019 -133.7859 250° West 451 519 34,000  Level FlightAware Transoceanic
09:02PM 30.5595 -133.9229 250° West 451 519 34,000  Level FlightAware Transoceanic
09:03PM 30.5169 -134.0597 250° West 451 519 34,000  Level FlightAware Transoceanic
09:04PM 30.4741 -134.1964 250° West 451 519 34,000  Level FlightAware Transoceanic
09:05PM 30.4312 -134.3329 250° West 451 519 34,000  Level FlightAware Transoceanic
09:06PM 30.3882 -134.4694 250° West 451 519 34,000  Level FlightAware Transoceanic
09:07PM 30.3451 -134.6057 250° West 451 519 34,000  Level FlightAware Transoceanic
09:08PM 30.3018 -134.7420 250° West 451 519 34,000  Level FlightAware Transoceanic
09:09PM 30.2583 -134.8781 250° West 451 519 34,000  Level FlightAware Transoceanic
09:10PM 30.2147 -135.0140 250° West 451 519 34,000  Level FlightAware Transoceanic
09:11PM 30.1710 -135.1499 250° West 451 519 34,000  Level FlightAware Transoceanic
09:12PM 30.1271 -135.2856 249° West 451 519 34,000  Level FlightAware Transoceanic
09:13PM 30.0831 -135.4212 249° West 451 519 34,000  Level FlightAware Transoceanic
09:14PM 30.0390 -135.5567 249° West 451 519 34,000  Level FlightAware Transoceanic
09:15PM 29.9947 -135.6921 249° West 451 519 34,000  Level FlightAware Transoceanic
09:16PM 29.9503 -135.8274 249° West 451 519 34,000  Level FlightAware Transoceanic
09:17PM 29.9057 -135.9625 249° West 451 519 34,000  Level FlightAware Transoceanic
09:18PM 29.8610 -136.0975 249° West 451 519 34,000  Level FlightAware Transoceanic
09:19PM 29.8162 -136.2324 249° West 451 519 34,000  Level FlightAware Transoceanic
09:20PM 29.7712 -136.3672 249° West 451 519 34,000  Level FlightAware Transoceanic
09:21PM 29.7261 -136.5018 249° West 451 519 34,000  Level FlightAware Transoceanic
09:22PM 29.6809 -136.6363 249° West 451 519 34,000  Level FlightAware Transoceanic
09:23PM 29.6355 -136.7707 249° West 451 519 34,000  Level FlightAware Transoceanic
09:24PM 29.5900 -136.9050 249° West 451 519 34,000  Level FlightAware Transoceanic
09:25PM 29.5443 -137.0392 249° West 451 519 34,000  Level FlightAware Transoceanic
09:26PM 29.4986 -137.1732 249° West 451 519 34,000  Level FlightAware Transoceanic
09:27PM 29.4526 -137.3071 248° West 451 519 34,000  Level FlightAware Transoceanic
09:28PM 29.4066 -137.4409 248° West 451 519 34,000  Level FlightAware Transoceanic
09:29PM 29.3604 -137.5746 248° West 451 519 34,000  Level FlightAware Transoceanic
09:30PM 29.3141 -137.7082 248° West 451 519 34,000  Level FlightAware Transoceanic
09:31PM 29.2676 -137.8416 248° West 451 519 34,000  Level FlightAware Transoceanic
09:32PM 29.2211 -137.9749 248° West 451 519 34,000  Level FlightAware Transoceanic
09:33PM 29.1743 -138.1081 248° West 451 519 34,000  Level FlightAware Transoceanic
09:34PM 29.1275 -138.2412 248° West 451 519 34,000  Level FlightAware Transoceanic
09:35PM 29.0805 -138.3741 248° West 451 519 34,000  Level FlightAware Transoceanic
09:36PM 29.0334 -138.5069 248° West 451 519 34,000  Level FlightAware Transoceanic
09:37PM 28.9862 -138.6396 248° West 451 519 34,000  Level FlightAware Transoceanic
09:38PM 28.9388 -138.7722 248° West 451 519 34,000  Level FlightAware Transoceanic
09:39PM 28.8913 -138.9047 248° West 451 519 34,000  Level FlightAware Transoceanic
09:40PM 28.8437 -139.0370 248° West 451 519 34,000  Level FlightAware Transoceanic
09:41PM 28.7959 -139.1693 248° West 451 519 34,000  Level FlightAware Transoceanic
09:42PM 28.7480 -139.3014 247° West 451 519 34,000  Level FlightAware Transoceanic
09:43PM 28.7000 -139.4333 247° West 451 519 34,000  Level FlightAware Transoceanic
09:44PM 28.6530 -139.5610 247° West 451 519 34,000  Level FlightAware Transoceanic
09:45PM 28.6059 -139.6886 247° West 451 519 34,000  Level FlightAware Transoceanic
09:46PM 28.5587 -139.8161 247° West 451 519 34,000  Level FlightAware Transoceanic
09:47PM 28.5113 -139.9434 247° West 451 519 34,000  Level FlightAware Transoceanic
09:47PM 28.7000 -139.4333 247° West 430 495 34,000  Level Oakland Oceanic (ODAPS)
09:48PM 28.4639 -140.0707 247° West 451 519 34,000  Level FlightAware Transoceanic
09:49PM 28.4163 -140.1978 247° West 451 519 34,000  Level FlightAware Transoceanic
09:50PM 28.3686 -140.3248 247° West 451 519 34,000  Level FlightAware Transoceanic
09:51PM 28.3208 -140.4517 247° West 451 519 34,000  Level FlightAware Transoceanic
09:52PM 28.2729 -140.5785 247° West 451 519 34,000  Level FlightAware Transoceanic
09:53PM 28.2807 -140.5577 247° West 430 495 34,000  Level FlightAware Transoceanic
09:54PM 28.2335 -140.6821 247° West 430 495 34,000  Level FlightAware Transoceanic
09:55PM 28.1863 -140.8064 247° West 430 495 34,000  Level FlightAware Transoceanic
09:56PM 28.1389 -140.9306 247° West 430 495 34,000  Level FlightAware Transoceanic
09:57PM 28.0914 -141.0546 247° West 430 495 34,000  Level FlightAware Transoceanic
09:58PM 28.0438 -141.1786 246° West 430 495 34,000  Level FlightAware Transoceanic
09:59PM 27.9961 -141.3024 246° West 430 495 34,000  Level FlightAware Transoceanic
10:00PM 27.9483 -141.4261 246° West 430 495 34,000  Level FlightAware Transoceanic
10:01PM 27.9003 -141.5497 246° West 430 495 34,000  Level FlightAware Transoceanic
10:02PM 27.8523 -141.6732 246° West 430 495 34,000  Level FlightAware Transoceanic
10:03PM 27.8041 -141.7966 246° West 430 495 34,000  Level FlightAware Transoceanic
10:04PM 27.7559 -141.9199 246° West 430 495 34,000  Level FlightAware Transoceanic
10:05PM 27.7075 -142.0431 246° West 430 495 34,000  Level FlightAware Transoceanic
10:06PM 27.6590 -142.1662 246° West 430 495 34,000  Level FlightAware Transoceanic
10:07PM 27.6104 -142.2891 246° West 430 495 34,000  Level FlightAware Transoceanic
10:08PM 27.5617 -142.4120 246° West 430 495 34,000  Level FlightAware Transoceanic
10:09PM 27.5129 -142.5347 246° West 430 495 34,000  Level FlightAware Transoceanic
10:10PM 27.4640 -142.6573 246° West 430 495 34,000  Level FlightAware Transoceanic
10:11PM 27.4149 -142.7799 246° West 430 495 34,000  Level FlightAware Transoceanic
10:12PM 27.3658 -142.9023 246° West 430 495 34,000  Level FlightAware Transoceanic
10:13PM 27.3166 -143.0246 246° West 430 495 34,000  Level FlightAware Transoceanic
10:14PM 27.2672 -143.1468 246° West 430 495 34,000  Level FlightAware Transoceanic
10:15PM 27.2178 -143.2689 245° Southwest 430 495 34,000  Level FlightAware Transoceanic
10:16PM 27.1682 -143.3908 245° Southwest 430 495 34,000  Level FlightAware Transoceanic
10:17PM 27.1186 -143.5127 245° Southwest 430 495 34,000  Level FlightAware Transoceanic
10:18PM 27.0688 -143.6345 245° Southwest 430 495 34,000  Level FlightAware Transoceanic
10:19PM 27.0189 -143.7561 245° Southwest 430 495 34,000  Level FlightAware Transoceanic
10:20PM 26.9690 -143.8777 245° Southwest 430 495 34,000  Level FlightAware Transoceanic
10:21PM 26.9189 -143.9991 245° Southwest 430 495 34,000  Level FlightAware Transoceanic
10:22PM 26.8687 -144.1205 245° Southwest 430 495 34,000  Level FlightAware Transoceanic
10:23PM 26.8184 -144.2417 245° Southwest 430 495 34,000  Level FlightAware Transoceanic
10:24PM 26.7680 -144.3628 245° Southwest 430 495 34,000  Level FlightAware Transoceanic
10:25PM 26.7175 -144.4838 245° Southwest 430 495 34,000  Level FlightAware Transoceanic
10:26PM 26.6669 -144.6047 245° Southwest 430 495 34,000  Level FlightAware Transoceanic
10:27PM 26.6162 -144.7255 245° Southwest 430 495 34,000  Level FlightAware Transoceanic
10:28PM 26.5654 -144.8462 245° Southwest 430 495 34,000  Level FlightAware Transoceanic
10:29PM 26.5145 -144.9668 245° Southwest 430 495 34,000  Level FlightAware Transoceanic
10:30PM 26.4635 -145.0872 245° Southwest 430 495 34,000  Level FlightAware Transoceanic
10:31PM 26.4124 -145.2076 245° Southwest 430 495 34,000  Level FlightAware Transoceanic
10:32PM 26.3612 -145.3278 245° Southwest 430 495 34,000  Level FlightAware Transoceanic
10:33PM 26.3099 -145.4480 244° Southwest 430 495 34,000  Level FlightAware Transoceanic
10:34PM 26.2585 -145.5680 244° Southwest 430 495 34,000  Level FlightAware Transoceanic
10:35PM 26.2070 -145.6880 244° Southwest 430 495 34,000  Level FlightAware Transoceanic
10:36PM 26.1554 -145.8078 244° Southwest 430 495 34,000  Level FlightAware Transoceanic
10:37PM 26.1037 -145.9275 244° Southwest 430 495 34,000  Level FlightAware Transoceanic
10:38PM 26.0519 -146.0471 244° Southwest 430 495 34,000  Level FlightAware Transoceanic
10:39PM 26.0000 -146.1667 244° Southwest 430 495 34,000  Level FlightAware Transoceanic
10:40PM 25.9482 -146.2861 244° Southwest 430 495 34,000  Level FlightAware Transoceanic
10:41PM 25.8964 -146.4054 244° Southwest 430 495 34,000  Level FlightAware Transoceanic
10:42PM 25.8445 -146.5246 244° Southwest 430 495 34,000  Level FlightAware Transoceanic
10:42PM 26.0000 -146.1667 244° Southwest 428 493 34,000  Level Oakland Oceanic (ODAPS)
10:43PM 25.7924 -146.6438 244° Southwest 430 495 34,000  Level FlightAware Transoceanic
10:44PM 25.7403 -146.7628 244° Southwest 430 495 34,000  Level FlightAware Transoceanic
10:45PM 25.6881 -146.8817 244° Southwest 430 495 34,000  Level FlightAware Transoceanic
10:46PM 25.6357 -147.0005 244° Southwest 430 495 34,000  Level FlightAware Transoceanic
10:47PM 25.5833 -147.1192 244° Southwest 430 495 34,000  Level FlightAware Transoceanic
10:48PM 25.5308 -147.2377 244° Southwest 430 495 34,000  Level FlightAware Transoceanic
10:49PM 25.5308 -147.2377 244° Southwest 428 493 34,000  Level FlightAware Transoceanic
10:50PM 25.4782 -147.3562 244° Southwest 428 493 34,000  Level FlightAware Transoceanic
10:51PM 25.4255 -147.4746 244° Southwest 428 493 34,000  Level FlightAware Transoceanic
10:52PM 25.3727 -147.5929 244° Southwest 428 493 34,000  Level FlightAware Transoceanic
10:53PM 25.3197 -147.7111 244° Southwest 428 493 34,000  Level FlightAware Transoceanic
10:54PM 25.2668 -147.8292 244° Southwest 428 493 34,000  Level FlightAware Transoceanic
10:55PM 25.2137 -147.9471 244° Southwest 428 493 34,000  Level FlightAware Transoceanic
10:56PM 25.1605 -148.0650 243° Southwest 428 493 34,000  Level FlightAware Transoceanic
10:57PM 25.1072 -148.1828 243° Southwest 428 493 34,000  Level FlightAware Transoceanic
10:58PM 25.0538 -148.3004 243° Southwest 428 493 34,000  Level FlightAware Transoceanic
10:59PM 25.0004 -148.4180 243° Southwest 428 493 34,000  Level FlightAware Transoceanic
11:00PM 24.9468 -148.5354 243° Southwest 428 493 34,000  Level FlightAware Transoceanic
11:01PM 24.8932 -148.6528 243° Southwest 428 493 34,000  Level FlightAware Transoceanic
11:02PM 24.8395 -148.7701 243° Southwest 428 493 34,000  Level FlightAware Transoceanic
11:03PM 24.7856 -148.8872 243° Southwest 428 493 34,000  Level FlightAware Transoceanic
11:04PM 24.7317 -149.0043 243° Southwest 428 493 34,000  Level FlightAware Transoceanic
11:05PM 24.6777 -149.1212 243° Southwest 428 493 34,000  Level FlightAware Transoceanic
11:06PM 24.6236 -149.2381 243° Southwest 428 493 34,000  Level FlightAware Transoceanic
11:07PM 24.5694 -149.3548 243° Southwest 428 493 34,000  Level FlightAware Transoceanic
11:08PM 24.5151 -149.4714 243° Southwest 428 493 34,000  Level FlightAware Transoceanic
11:09PM 24.4608 -149.5880 243° Southwest 428 493 34,000  Level FlightAware Transoceanic
11:10PM 24.4063 -149.7044 243° Southwest 428 493 34,000  Level FlightAware Transoceanic
11:11PM 24.3517 -149.8208 243° Southwest 428 493 34,000  Level FlightAware Transoceanic
11:12PM 24.2971 -149.9370 243° Southwest 428 493 34,000  Level FlightAware Transoceanic
11:13PM 24.2424 -150.0531 243° Southwest 428 493 34,000  Level FlightAware Transoceanic
11:14PM 24.1876 -150.1692 243° Southwest 428 493 34,000  Level FlightAware Transoceanic
11:15PM 24.1327 -150.2851 243° Southwest 428 493 34,000  Level FlightAware Transoceanic
11:16PM 24.0777 -150.4010 243° Southwest 428 493 34,000  Level FlightAware Transoceanic
11:17PM 24.0226 -150.5167 242° Southwest 428 493 34,000  Level FlightAware Transoceanic
11:18PM 23.9674 -150.6324 242° Southwest 428 493 34,000  Level FlightAware Transoceanic
11:19PM 23.9122 -150.7479 242° Southwest 428 493 34,000  Level FlightAware Transoceanic
11:20PM 23.8568 -150.8634 242° Southwest 428 493 34,000  Level FlightAware Transoceanic
11:21PM 23.8014 -150.9787 242° Southwest 428 493 34,000  Level FlightAware Transoceanic
11:22PM 23.7459 -151.0940 242° Southwest 428 493 34,000  Level FlightAware Transoceanic
11:23PM 23.6903 -151.2091 242° Southwest 428 493 34,000  Level FlightAware Transoceanic
11:24PM 23.6346 -151.3242 242° Southwest 428 493 34,000  Level FlightAware Transoceanic
11:25PM 23.5789 -151.4391 242° Southwest 428 493 34,000  Level FlightAware Transoceanic
11:26PM 23.5230 -151.5540 242° Southwest 428 493 34,000  Level FlightAware Transoceanic
11:27PM 23.4671 -151.6687 242° Southwest 428 493 34,000  Level FlightAware Transoceanic
11:28PM 23.4111 -151.7834 242° Southwest 428 493 34,000  Level FlightAware Transoceanic
11:29PM 23.3550 -151.8980 242° Southwest 428 493 34,000  Level FlightAware Transoceanic
11:30PM 23.2988 -152.0124 242° Southwest 428 493 34,000  Level FlightAware Transoceanic
11:31PM 23.2425 -152.1268 242° Southwest 428 493 34,000  Level FlightAware Transoceanic
11:32PM 23.1862 -152.2411 242° Southwest 428 493 34,000  Level FlightAware Transoceanic
11:33PM 23.1298 -152.3553 242° Southwest 428 493 34,000  Level FlightAware Transoceanic
11:34PM 23.0733 -152.4693 242° Southwest 428 493 34,000  Level FlightAware Transoceanic
11:35PM 23.0167 -152.5833 242° Southwest 428 493 34,000  Level FlightAware Transoceanic
11:36PM 22.9629 -152.6921 242° Southwest 428 493 34,000  Level FlightAware Transoceanic
11:37PM 22.9091 -152.8009 242° Southwest 428 493 34,000  Level FlightAware Transoceanic
11:37PM 22.9833 -152.6333 242° Southwest 420 483 34,000  Level Honolulu Center
11:38PM 22.8552 -152.9095 242° Southwest 428 493 34,000  Level FlightAware Transoceanic
11:38PM 22.9333 -152.7500 245° Southwest 420 483 34,000  Level Honolulu Center
11:39PM 22.8012 -153.0180 242° Southwest 428 493 34,000  Level FlightAware Transoceanic
11:39PM 22.8667 -152.8667 238° Southwest 430 495 34,000  Level Honolulu Center
11:40PM 22.7471 -153.1265 242° Southwest 428 493 34,000  Level FlightAware Transoceanic
11:40PM 22.8333 -152.9833 253° West 410 472 34,000  Level Honolulu Center
11:41PM 22.6930 -153.2349 242° Southwest 428 493 34,000  Level FlightAware Transoceanic
11:41PM 22.8167 -153.1167 262° West 420 483 34,000  Level Honolulu Center
11:42PM 22.6388 -153.3432 242° Southwest 428 493 34,000  Level FlightAware Transoceanic
11:42PM 22.8000 -153.2500 262° West 430 495 34,000  Level Honolulu Center
11:43PM 22.7833 -153.3833 262° West 430 495 34,000  Level Honolulu Center
11:44PM 22.7667 -153.5000 261° West 430 495 34,000  Level Honolulu Center
11:45PM 22.7500 -153.6333 262° West 430 495 34,000  Level Honolulu Center
11:46PM 22.7333 -153.7667 262° West 430 495 34,000  Level Honolulu Center
11:47PM 22.7167 -153.8833 261° West 430 495 34,000  Level Honolulu Center
11:48PM 22.6833 -154.0167 255° West 430 495 34,000  Level Honolulu Center
11:49PM 22.6667 -154.1500 262° West 440 506 34,000  Level Honolulu Center
11:50PM 22.6500 -154.2667 261° West 430 495 34,000  Level Honolulu Center
11:51PM 22.6333 -154.4000 262° West 430 495 34,000  Level Honolulu Center
11:52PM 22.6000 -154.5333 255° West 440 506 34,000  Level Honolulu Center
11:53PM 22.5833 -154.6500 261° West 430 495 34,000  Level Honolulu Center
11:54PM 22.5667 -154.7833 262° West 420 483 34,000 -540 Level Honolulu Center
11:55PM 22.5333 -154.9000 253° West 410 472 33,000 -1,800 Descending Honolulu Center
11:56PM 22.5167 -155.0333 262° West 420 483 30,400 -1,500 Descending Honolulu Center
11:57PM 22.5000 -155.1500 261° West 430 495 30,000 -240 Descending Honolulu Center
11:58PM 22.4667 -155.2833 255° West 430 495 30,000  Level Honolulu Center
11:59PM 22.4500 -155.4167 262° West 430 495 30,000  Level Honolulu Center
12:00AM 22.4167 -155.5667 257° West 430 495 30,000  Level Honolulu Center
12:01AM 22.4000 -155.6833 261° West 430 495 30,000  Level Honolulu Center
12:02AM 22.3833 -155.8167 262° West 430 495 30,000  Level Honolulu Center
12:03AM 22.3500 -155.9500 255° West 440 506 30,000  Level Honolulu Center
12:04AM 22.3333 -156.0667 261° West 430 495 30,000  Level Honolulu Center
12:10AM 22.1960 -156.8060 261° West 437 503 30,000  Level FlightAware
12:10AM 22.1810 -156.8860 259° West 437 503 30,000  Level FlightAware
12:11AM 22.1670 -156.9610 259° West 437 503 30,000  Level FlightAware
12:12AM 22.1410 -157.0970 258° West 437 503 30,000  Level FlightAware
12:13AM 22.1200 -157.2070 258° West 438 504 30,000  Level FlightAware
12:14AM 22.1070 -157.2800 259° West 438 504 30,000  Level FlightAware
12:14AM 22.0820 -157.4070 258° West 437 503 30,000  Level FlightAware
12:15AM 22.0630 -157.5090 259° West 435 501 30,000  Level FlightAware
12:16AM 22.0410 -157.6170 258° West 431 496 30,000  Level FlightAware
12:17AM 22.0190 -157.7360 259° West 435 501 30,000  Level FlightAware
12:18AM 22.0020 -157.8220 258° West 435 501 30,000 -840 Level FlightAware
12:18AM 21.9850 -157.9120 259° West 447 514 28,900 -1,860 Descending FlightAware
12:19AM 21.9640 -158.0210 258° West 451 519 27,200 -1,500 Descending FlightAware
12:20AM 21.9410 -158.1360 258° West 451 519 26,200 -2,340 Descending FlightAware
12:21AM 21.9250 -158.2210 259° West 415 478 23,500 -3,360 Descending FlightAware
12:22AM 21.8990 -158.3530 258° West 401 461 20,500 -2,640 Descending FlightAware
12:23AM 21.8820 -158.4420 258° West 396 456 18,500 -2,580 Descending FlightAware
12:24AM 21.8620 -158.5430 258° West 370 426 16,300 -2,160 Descending FlightAware
12:24AM 21.8500 -158.6100 259° West 326 375 15,300 -1,200 Descending FlightAware
12:25AM 21.8380 -158.6710 258° West 304 350 14,700 -1,380 Descending FlightAware
12:26AM 21.8250 -158.7390 258° West 298 343 13,400 -1,140 Descending FlightAware
12:26AM 21.8160 -158.7870 259° West 296 341 13,100 -240 Descending FlightAware
12:27AM 21.8080 -158.8310 259° West 296 341 13,100  Level FlightAware
12:28AM 21.7970 -158.8920 259° West 296 341 13,100 -3,000 Level FlightAware
12:28AM 21.7833 -158.9500 259° West 280 322 9,000 -3,720 Descending Honolulu Center
12:29AM 21.7667 -159.0333 258° West 280 322 7,300 -1,740 Descending Honolulu Center
12:30AM 21.7500 -159.1167 258° West 290 334 5,600 -1,620 Descending Honolulu Center
12:31AM 21.7333 -159.2000 258° West 280 322 4,100 -1,500 Descending Honolulu Center